Time;durP1;ratioP1;P1;durP2;ratioP2;P2;SDS_P1;SDS_P2;PMS_P1;PMS_P2;Temp;Humidity;BMP_temperature;BMP_pressure;BME280_temperature;BME280_humidity;BME280_pressure;Samples;Min_cycle;Max_cycle;Signal;HPM_P1;HPM_P2
2023/11/22 00:00:15;;;;;;;13.40;6.90;;;;;;;3.42;59.88;100660.27;105137;1260;62275;-58
2023/11/22 00:02:43;;;;;;;15.20;5.30;;;;;;;3.44;59.88;100658.30;105284;1258;63814;-57
2023/11/22 00:05:11;;;;;;;13.80;5.60;;;;;;;3.44;59.88;100656.21;105929;1257;59749;-56
2023/11/22 00:07:38;;;;;;;14.10;6.40;;;;;;;3.45;59.98;100655.10;106893;1257;59537;-56
2023/11/22 00:10:08;;;;;;;13.10;6.20;;;;;;;3.46;59.94;100657.84;106513;1260;64048;-57
2023/11/22 00:12:38;;;;;;;15.20;7.00;;;;;;;3.45;59.88;100659.96;105382;1260;60368;-56
2023/11/22 00:15:07;;;;;;;14.10;6.40;;;;;;;3.40;59.84;100659.14;106030;1257;63966;-56
2023/11/22 00:17:35;;;;;;;13.50;6.50;;;;;;;3.35;59.78;100661.46;107022;1258;60152;-57
2023/11/22 00:20:05;;;;;;;16.70;6.40;;;;;;;3.30;59.97;100662.38;105047;1261;59563;-56
2023/11/22 00:22:35;;;;;;;17.30;5.70;;;;;;;3.24;60.04;100658.48;105942;1257;63004;-57
2023/11/22 00:25:03;;;;;;;20.20;7.40;;;;;;;3.17;60.11;100655.51;105337;1258;61429;-57
2023/11/22 00:27:31;;;;;;;16.50;7.00;;;;;;;3.12;60.17;100655.75;105459;1261;63682;-57
2023/11/22 00:29:59;;;;;;;10.30;5.30;;;;;;;3.10;60.31;100658.76;105400;1256;60584;-57
2023/11/22 00:32:26;;;;;;;12.60;5.60;;;;;;;3.11;60.30;100662.01;106087;1257;60642;-57
2023/11/22 00:34:54;;;;;;;11.20;5.30;;;;;;;3.13;60.37;100658.45;105392;1257;63670;-57
2023/11/22 00:37:22;;;;;;;17.10;7.00;;;;;;;3.18;60.60;100653.55;105390;1256;60667;-57
2023/11/22 00:39:51;;;;;;;14.30;5.80;;;;;;;3.24;60.65;100645.35;106184;1257;63979;-57
2023/11/22 00:42:20;;;;;;;15.30;7.50;;;;;;;3.27;60.74;100648.14;105923;1258;60339;-57
2023/11/22 00:44:48;;;;;;;16.20;8.00;;;;;;;3.27;60.84;100649.85;105212;1257;60338;-56
2023/11/22 00:47:16;;;;;;;16.60;8.60;;;;;;;3.28;60.96;100645.14;105237;1257;63639;-57
2023/11/22 00:49:46;;;;;;;37.20;7.50;;;;;;;3.28;61.18;100643.43;105263;1261;60581;-57
2023/11/22 00:52:13;;;;;;;17.50;7.20;;;;;;;3.25;61.27;100641.99;105086;1261;65213;-56
2023/11/22 00:54:41;;;;;;;14.70;7.50;;;;;;;3.21;61.07;100640.10;106111;1257;61501;-57
2023/11/22 00:57:09;;;;;;;16.10;8.30;;;;;;;3.13;60.92;100637.14;105164;1262;60370;-57
2023/11/22 00:59:37;;;;;;;16.50;7.60;;;;;;;3.05;61.12;100639.77;105065;1261;76011;-57
2023/11/22 01:02:08;;;;;;;17.40;7.20;;;;;;;2.98;61.28;100641.29;105194;1257;61275;-59
2023/11/22 01:04:36;;;;;;;19.40;7.90;;;;;;;2.91;61.47;100643.30;105662;1257;63859;-57
2023/11/22 01:07:05;;;;;;;16.50;7.60;;;;;;;2.86;61.77;100643.56;105765;1260;60360;-57
2023/11/22 01:09:33;;;;;;;16.60;6.20;;;;;;;2.85;61.94;100643.92;105448;1260;60372;-58
2023/11/22 01:12:01;;;;;;;16.90;9.30;;;;;;;2.92;61.92;100644.52;105563;1257;64894;-57
2023/11/22 01:14:29;;;;;;;15.40;8.10;;;;;;;3.00;61.97;100641.52;106227;1260;61425;-57
2023/11/22 01:17:03;;;;;;;16.10;6.50;;;;;;;3.07;61.98;100639.33;106557;1257;63741;-59
2023/11/22 01:19:31;;;;;;;19.70;7.70;;;;;;;3.13;61.98;100635.08;105570;1260;62632;-59
2023/11/22 01:21:58;;;;;;;12.40;6.00;;;;;;;3.15;62.05;100633.21;105972;1258;60440;-59
2023/11/22 01:24:27;;;;;;;13.80;5.50;;;;;;;3.16;62.11;100635.48;105045;1257;65069;-60
2023/11/22 01:26:55;;;;;;;19.90;8.50;;;;;;;3.13;62.10;100636.63;109058;1254;60162;-60
2023/11/22 01:29:23;;;;;;;15.80;8.90;;;;;;;3.10;62.14;100635.36;108971;1257;64184;-60
2023/11/22 01:31:51;;;;;;;12.00;5.30;;;;;;;3.09;62.07;100637.01;108866;1257;58470;-58
2023/11/22 01:34:19;;;;;;;17.20;6.60;;;;;;;3.07;62.12;100635.17;108982;1256;58642;-58
2023/11/22 01:36:49;;;;;;;14.60;6.00;;;;;;;3.03;62.03;100638.09;108947;1257;63638;-58
2023/11/22 01:39:17;;;;;;;16.50;6.30;;;;;;;2.99;62.00;100639.67;108936;1257;61392;-59
2023/11/22 01:41:49;;;;;;;14.80;6.90;;;;;;;2.94;62.15;100646.64;105881;1257;63713;-59
2023/11/22 01:44:18;;;;;;;13.80;6.60;;;;;;;2.90;62.34;100649.08;105228;1258;60498;-59
2023/11/22 01:46:46;;;;;;;17.30;8.60;;;;;;;2.93;62.32;100651.91;106488;1256;60350;-56
2023/11/22 01:49:14;;;;;;;15.50;6.50;;;;;;;2.98;62.29;100650.13;105579;1257;64956;-57
2023/11/22 01:51:41;;;;;;;12.90;4.60;;;;;;;3.04;62.26;100642.76;105163;1260;62116;-57
2023/11/22 01:54:10;;;;;;;18.80;10.10;;;;;;;3.09;62.27;100642.00;105155;1260;71551;-58
2023/11/22 01:56:38;;;;;;;13.30;7.00;;;;;;;3.15;62.31;100638.94;106272;1257;60562;-59
2023/11/22 01:59:05;;;;;;;12.30;5.60;;;;;;;3.19;62.38;100641.05;104964;1257;60465;-60
2023/11/22 02:01:34;;;;;;;14.40;6.70;;;;;;;3.19;62.35;100640.36;105233;1255;63646;-59
2023/11/22 02:04:02;;;;;;;18.10;9.50;;;;;;;3.16;62.42;100643.23;105435;1254;60350;-60
2023/11/22 02:06:31;;;;;;;18.00;7.60;;;;;;;3.16;62.46;100643.61;105675;1257;62488;-59
2023/11/22 02:08:59;;;;;;;17.60;8.00;;;;;;;3.14;62.40;100644.90;106474;1254;60452;-59
2023/11/22 02:11:27;;;;;;;13.80;7.10;;;;;;;3.12;62.44;100645.50;105315;1254;60453;-58
2023/11/22 02:13:55;;;;;;;16.00;7.20;;;;;;;3.07;62.38;100647.79;105180;1254;63693;-59
2023/11/22 02:16:23;;;;;;;14.20;7.10;;;;;;;3.00;62.34;100649.52;105744;1259;60386;-59
2023/11/22 02:18:51;;;;;;;21.90;9.60;;;;;;;2.93;62.30;100652.92;106661;1255;63751;-60
2023/11/22 02:21:20;;;;;;;17.20;7.50;;;;;;;2.88;62.26;100657.14;106843;1257;59729;-61
2023/11/22 02:23:49;;;;;;;13.90;4.40;;;;;;;2.89;62.19;100655.36;107193;1254;59333;-60
2023/11/22 02:26:17;;;;;;;11.40;5.00;;;;;;;2.94;62.15;100653.08;105619;1257;67039;-60
2023/11/22 02:28:46;;;;;;;20.80;8.20;;;;;;;3.00;62.25;100653.66;105548;1259;61569;-60
2023/11/22 02:31:13;;;;;;;12.70;5.70;;;;;;;3.09;62.37;100651.18;105104;1257;63692;-59
2023/11/22 02:33:41;;;;;;;18.10;6.80;;;;;;;3.13;62.30;100654.98;105917;1257;60430;-59
2023/11/22 02:36:12;;;;;;;15.70;7.00;;;;;;;3.13;62.38;100657.60;105378;1254;60437;-57
2023/11/22 02:38:40;;;;;;;12.00;5.80;;;;;;;3.09;62.45;100663.52;105331;1257;64947;-62
2023/11/22 02:41:08;;;;;;;16.20;6.50;;;;;;;3.05;62.65;100664.20;105302;1260;69114;-58
2023/11/22 02:43:36;;;;;;;15.10;8.30;;;;;;;3.01;62.74;100663.48;106360;1257;62548;-58
2023/11/22 02:46:04;;;;;;;14.00;7.30;;;;;;;2.95;62.76;100662.38;105128;1254;60471;-60
2023/11/22 02:48:33;;;;;;;24.80;8.50;;;;;;;2.86;62.81;100655.50;105383;1260;61808;-60
2023/11/22 02:51:01;;;;;;;13.00;5.80;;;;;;;2.80;62.91;100656.44;105027;1257;65033;-58
2023/11/22 02:53:29;;;;;;;17.00;7.60;;;;;;;2.82;62.94;100653.95;105761;1259;60575;-60
2023/11/22 02:56:01;;;;;;;20.80;9.10;;;;;;;2.84;63.08;100650.38;106183;1258;62457;-61
2023/11/22 02:58:29;;;;;;;19.30;8.00;;;;;;;2.86;63.30;100649.08;105594;1256;60404;-61
2023/11/22 03:00:57;;;;;;;17.60;7.80;;;;;;;2.85;63.39;100651.04;105952;1259;60440;-60
2023/11/22 03:03:25;;;;;;;13.00;6.20;;;;;;;2.80;63.59;100649.16;105538;1260;65917;-61
2023/11/22 03:05:52;;;;;;;17.70;7.40;;;;;;;2.75;63.85;100648.86;106232;1254;61314;-61
2023/11/22 03:08:21;;;;;;;17.30;7.40;;;;;;;2.71;63.97;100652.33;106760;1254;63736;-60
2023/11/22 03:10:50;;;;;;;16.10;7.60;;;;;;;2.64;64.02;100651.77;105261;1254;60556;-62
2023/11/22 03:13:18;;;;;;;17.40;7.60;;;;;;;2.56;64.10;100650.70;106238;1255;60047;-60
2023/11/22 03:15:46;;;;;;;14.80;7.10;;;;;;;2.56;64.10;100652.79;105371;1254;64897;-57
2023/11/22 03:18:16;;;;;;;19.30;8.40;;;;;;;2.57;64.20;100652.21;105350;1259;60420;-60
2023/11/22 03:20:45;;;;;;;14.90;6.90;;;;;;;2.58;64.41;100652.04;105958;1254;71794;-57
2023/11/22 03:23:13;;;;;;;16.60;8.00;;;;;;;2.54;64.67;100655.84;105264;1254;60468;-58
2023/11/22 03:25:40;;;;;;;21.60;7.60;;;;;;;2.49;64.93;100657.60;105338;1254;60517;-57
2023/11/22 03:28:08;;;;;;;17.30;8.30;;;;;;;2.43;64.99;100656.44;105671;1254;64954;-57
2023/11/22 03:30:35;;;;;;;20.70;8.40;;;;;;;2.39;65.14;100657.14;106501;1258;61344;-57
2023/11/22 03:33:04;;;;;;;15.70;7.30;;;;;;;2.35;65.40;100653.48;105261;1254;62539;-57
2023/11/22 03:35:32;;;;;;;15.60;7.40;;;;;;;2.39;65.28;100658.86;106209;1255;61373;-57
2023/11/22 03:37:59;;;;;;;14.00;7.00;;;;;;;2.44;65.34;100665.42;105771;1254;60536;-57
2023/11/22 03:40:27;;;;;;;19.70;8.40;;;;;;;2.50;65.45;100663.44;105231;1254;64205;-57
2023/11/22 03:42:55;;;;;;;17.60;8.70;;;;;;;2.56;65.37;100662.15;105263;1254;61855;-57
2023/11/22 03:45:23;;;;;;;17.80;8.60;;;;;;;2.56;65.35;100665.24;105610;1256;63700;-58
2023/11/22 03:47:53;;;;;;;16.30;7.80;;;;;;;2.53;65.55;100671.09;105832;1259;60514;-58
2023/11/22 03:50:20;;;;;;;17.00;8.50;;;;;;;2.49;65.53;100674.20;106697;1254;60466;-58
2023/11/22 03:52:48;;;;;;;16.00;7.10;;;;;;;2.44;65.43;100678.23;105180;1253;63927;-59
2023/11/22 03:55:15;;;;;;;19.30;8.70;;;;;;;2.38;65.51;100673.61;105167;1257;60261;-59
2023/11/22 03:57:43;;;;;;;15.30;7.00;;;;;;;2.34;65.54;100675.86;107850;1257;63803;-59
2023/11/22 04:00:12;;;;;;;11.30;5.00;;;;;;;2.36;65.44;100677.86;105489;1254;60369;-59
2023/11/22 04:02:39;;;;;;;15.70;7.20;;;;;;;2.39;65.29;100679.11;106046;1257;60454;-60
2023/11/22 04:05:08;;;;;;;16.70;7.00;;;;;;;2.44;65.39;100685.33;106733;1254;64904;-59
2023/11/22 04:07:36;;;;;;;18.50;9.90;;;;;;;2.49;65.46;100688.92;105650;1259;60517;-58
2023/11/22 04:10:03;;;;;;;17.90;9.00;;;;;;;2.50;65.56;100688.05;106525;1254;63770;-60
2023/11/22 04:12:32;;;;;;;18.50;8.50;;;;;;;2.49;65.51;100684.10;106786;1258;60532;-58
2023/11/22 04:15:04;;;;;;;19.30;9.90;;;;;;;2.45;65.46;100687.55;105676;1254;60383;-59
2023/11/22 04:17:32;;;;;;;18.10;9.40;;;;;;;2.40;65.55;100688.27;105600;1259;64944;-59
2023/11/22 04:20:00;;;;;;;16.80;7.90;;;;;;;2.36;65.55;100684.60;105456;1254;61519;-59
2023/11/22 04:22:28;;;;;;;22.50;9.10;;;;;;;2.34;65.71;100688.19;106084;1254;62556;-61
2023/11/22 04:24:56;;;;;;;15.10;6.30;;;;;;;2.36;65.55;100692.92;106090;1254;60519;-60
2023/11/22 04:27:24;;;;;;;15.60;7.80;;;;;;;2.40;65.33;100698.31;105679;1259;60415;-60
2023/11/22 04:29:52;;;;;;;19.80;8.80;;;;;;;2.43;65.28;100697.17;106071;1254;64947;-59
2023/11/22 04:32:24;;;;;;;25.90;10.80;;;;;;;2.42;65.35;100697.02;106226;1259;60443;-60
2023/11/22 04:34:55;;;;;;;16.30;7.90;;;;;;;2.39;65.29;100696.95;105720;1259;62738;-59
2023/11/22 04:37:26;;;;;;;18.80;7.10;;;;;;;2.35;65.44;100700.92;108483;1254;60457;-61
2023/11/22 04:39:54;;;;;;;13.10;5.70;;;;;;;2.32;65.68;100697.24;107815;1258;60089;-61
2023/11/22 04:42:21;;;;;;;19.20;8.70;;;;;;;2.29;65.68;100698.43;105712;1254;64937;-59
2023/11/22 04:44:50;;;;;;;17.30;7.70;;;;;;;2.26;65.68;100699.91;106411;1254;61349;-56
2023/11/22 04:47:18;;;;;;;19.40;7.50;;;;;;;2.29;65.49;100702.91;106652;1258;63773;-58
2023/11/22 04:49:45;;;;;;;20.10;8.20;;;;;;;2.35;65.39;100704.92;105236;1255;60501;-59
2023/11/22 04:52:14;;;;;;;14.30;7.00;;;;;;;2.41;65.48;100706.75;105222;1259;60364;-59
2023/11/22 04:54:41;;;;;;;17.00;7.00;;;;;;;2.45;65.58;100709.02;105158;1255;64923;-59
2023/11/22 04:57:10;;;;;;;16.20;7.40;;;;;;;2.45;65.57;100710.94;106019;1253;60526;-59
2023/11/22 04:59:38;;;;;;;16.40;7.40;;;;;;;2.42;65.63;100713.63;105357;1260;62421;-59
2023/11/22 05:02:07;;;;;;;19.10;7.70;;;;;;;2.41;65.82;100715.39;105407;1254;60347;-58
2023/11/22 05:04:34;;;;;;;18.10;7.60;;;;;;;2.40;65.82;100720.84;105568;1254;60584;-59
2023/11/22 05:07:04;;;;;;;19.20;7.40;;;;;;;2.39;65.63;100720.66;105502;1254;64896;-60
2023/11/22 05:09:32;;;;;;;16.20;8.50;;;;;;;2.42;65.41;100724.03;105155;1260;61391;-60
2023/11/22 05:11:59;;;;;;;13.30;5.70;;;;;;;2.42;65.36;100731.30;105234;1254;63744;-60
2023/11/22 05:14:27;;;;;;;14.70;7.60;;;;;;;2.36;65.55;100731.86;106561;1254;60508;-57
2023/11/22 05:16:56;;;;;;;14.70;8.20;;;;;;;2.31;65.85;100733.79;105451;1254;60470;-57
2023/11/22 05:19:25;;;;;;;17.00;8.80;;;;;;;2.24;65.84;100737.89;105194;1260;63617;-59
2023/11/22 05:21:53;;;;;;;18.90;7.40;;;;;;;2.17;65.90;100740.42;106328;1259;60588;-59
2023/11/22 05:24:21;;;;;;;17.50;6.30;;;;;;;2.11;66.01;100741.18;105023;1254;63731;-59
2023/11/22 05:26:51;;;;;;;18.00;8.60;;;;;;;2.11;66.03;100741.36;106710;1254;60469;-60
2023/11/22 05:29:19;;;;;;;15.40;6.50;;;;;;;2.15;65.95;100741.39;105826;1259;60639;-61
2023/11/22 05:31:48;;;;;;;16.90;7.10;;;;;;;2.18;66.17;100746.79;105109;1254;63621;-61
2023/11/22 05:34:16;;;;;;;18.80;8.20;;;;;;;2.22;66.53;100747.64;106071;1259;62417;-62
2023/11/22 05:36:43;;;;;;;14.30;8.10;;;;;;;2.25;66.71;100745.13;109044;1254;64397;-62
2023/11/22 05:39:11;;;;;;;17.70;7.60;;;;;;;2.27;66.68;100744.90;107695;1254;59269;-61
2023/11/22 05:41:39;;;;;;;16.80;8.40;;;;;;;2.27;66.61;100744.70;106833;1254;59017;-61
2023/11/22 05:44:08;;;;;;;15.80;8.90;;;;;;;2.25;66.54;100748.41;105021;1254;63740;-61
2023/11/22 05:46:36;;;;;;;15.80;5.90;;;;;;;2.21;66.43;100748.55;105431;1260;61620;-61
2023/11/22 05:49:04;;;;;;;13.40;7.00;;;;;;;2.24;66.32;100753.29;106831;1259;63699;-59
2023/11/22 05:51:37;;;;;;;15.00;5.60;;;;;;;2.31;66.09;100756.64;106429;1254;61866;-62
2023/11/22 05:54:04;;;;;;;15.50;6.80;;;;;;;2.38;66.07;100762.10;109062;1254;58322;-62
2023/11/22 05:56:32;;;;;;;18.80;8.40;;;;;;;2.48;66.07;100766.91;108998;1259;63729;-62
2023/11/22 05:59:00;;;;;;;17.00;7.10;;;;;;;2.54;66.04;100770.48;109102;1254;60296;-58
2023/11/22 06:01:27;;;;;;;18.10;6.90;;;;;;;2.57;66.11;100774.15;105543;1254;62597;-64
2023/11/22 06:03:55;;;;;;;16.50;8.60;;;;;;;2.60;66.11;100776.98;106510;1254;60702;-60
2023/11/22 06:06:22;;;;;;;16.70;8.60;;;;;;;2.59;65.75;100777.73;105728;1259;60434;-60
2023/11/22 06:08:50;;;;;;;21.10;10.00;;;;;;;2.52;65.50;100783.87;105136;1254;64851;-59
2023/11/22 06:11:19;;;;;;;14.90;6.90;;;;;;;2.43;65.39;100790.48;105911;1254;61371;-62
2023/11/22 06:13:47;;;;;;;16.00;6.70;;;;;;;2.33;65.50;100790.86;105282;1254;64349;-60
2023/11/22 06:16:14;;;;;;;15.60;7.00;;;;;;;2.28;65.73;100794.53;105432;1254;60651;-60
2023/11/22 06:18:44;;;;;;;17.70;7.00;;;;;;;2.33;65.64;100796.92;105345;1259;60492;-61
2023/11/22 06:21:13;;;;;;;15.50;7.50;;;;;;;2.38;65.63;100802.27;106004;1258;64968;-60
2023/11/22 06:23:42;;;;;;;16.10;6.80;;;;;;;2.42;65.58;100804.35;105341;1260;61975;-61
2023/11/22 06:26:09;;;;;;;17.60;9.30;;;;;;;2.43;65.63;100805.54;108824;1254;62503;-61
2023/11/22 06:28:37;;;;;;;19.10;7.50;;;;;;;2.44;65.84;100809.67;105274;1255;60450;-62
2023/11/22 06:31:06;;;;;;;15.10;7.00;;;;;;;2.44;65.70;100814.17;106293;1257;60670;-59
2023/11/22 06:33:34;;;;;;;12.80;6.10;;;;;;;2.41;65.60;100817.73;105448;1260;63640;-61
2023/11/22 06:36:03;;;;;;;16.80;7.00;;;;;;;2.36;65.57;100821.56;105032;1254;61403;-61
2023/11/22 06:38:31;;;;;;;13.40;6.70;;;;;;;2.29;65.39;100823.23;105214;1255;63744;-61
2023/11/22 06:44:14;;;;;;;18.30;8.30;;;;;;;2.03;65.95;100823.34;104334;1289;616334;-95
2023/11/22 06:46:45;;;;;;;18.10;7.60;;;;;;;2.21;65.23;100821.27;106596;1262;58892;-95
2023/11/22 06:49:19;;;;;;;17.00;8.60;;;;;;;2.16;65.26;100826.83;106380;1269;59282;-96
2023/11/22 06:51:50;;;;;;;18.30;7.80;;;;;;;2.13;65.48;100836.13;106774;1261;64577;-95
2023/11/22 06:54:20;;;;;;;17.60;8.70;;;;;;;2.09;65.61;100832.65;107145;1254;63584;-93
2023/11/22 06:56:51;;;;;;;13.50;7.30;;;;;;;2.07;65.69;100830.98;104947;1251;3892929;-88
2023/11/22 06:59:21;;;;;;;16.80;8.20;;;;;;;2.12;65.59;100831.67;107263;1254;59265;-90
2023/11/22 07:01:50;;;;;;;15.70;6.00;;;;;;;2.19;65.53;100834.52;106645;1257;59673;-92
2023/11/22 07:04:21;;;;;;;14.10;5.70;;;;;;;2.28;65.65;100835.91;106799;1260;65869;-91
2023/11/22 07:06:51;;;;;;;15.40;7.70;;;;;;;2.33;65.80;100833.81;106876;1254;61811;-91
2023/11/22 07:09:21;;;;;;;20.10;6.30;;;;;;;2.34;65.72;100836.55;106683;1254;64321;-92
2023/11/22 07:11:51;;;;;;;16.70;8.20;;;;;;;2.30;65.65;100833.40;106680;1254;59866;-92
2023/11/22 07:14:21;;;;;;;16.50;6.90;;;;;;;2.28;65.67;100830.53;106626;1255;59597;-93
2023/11/22 07:16:51;;;;;;;13.70;6.00;;;;;;;2.27;65.68;100838.70;106732;1259;66370;-90
2023/11/22 07:19:23;;;;;;;14.50;6.80;;;;;;;2.27;65.56;100843.58;106597;1260;63183;-92
2023/11/22 07:21:56;;;;;;;19.10;6.80;;;;;;;2.34;65.33;100844.67;106288;1257;65716;-92
2023/11/22 07:24:25;;;;;;;18.50;6.70;;;;;;;2.41;65.18;100844.56;106387;1260;59724;-90
2023/11/22 07:26:54;;;;;;;15.80;6.60;;;;;;;2.45;64.98;100842.02;106360;1264;59615;-89
2023/11/22 07:29:26;;;;;;;18.10;6.90;;;;;;;2.40;64.80;100842.52;106528;1264;63716;-90
2023/11/22 07:31:56;;;;;;;14.40;7.70;;;;;;;2.38;64.86;100845.92;106305;1262;65547;-89
2023/11/22 07:34:25;;;;;;;17.60;6.70;;;;;;;2.36;64.82;100848.43;106243;1258;74266;-91
2023/11/22 07:36:54;;;;;;;20.90;7.70;;;;;;;2.31;64.67;100852.42;106251;1266;59540;-92
2023/11/22 07:39:27;;;;;;;14.90;8.20;;;;;;;2.26;64.86;100852.95;106387;1256;59768;-91
2023/11/22 07:41:58;;;;;;;19.60;10.00;;;;;;;2.23;64.79;100852.86;106321;1261;66080;-90
2023/11/22 07:44:27;;;;;;;19.20;9.30;;;;;;;2.25;64.47;100861.27;106292;1265;63357;-92
2023/11/22 07:47:00;;;;;;;14.30;7.30;;;;;;;2.26;64.35;100866.11;106810;1257;64958;-91
2023/11/22 07:49:31;;;;;;;18.80;7.30;;;;;;;2.25;64.58;100863.71;106575;1266;59660;-89
2023/11/22 07:52:04;;;;;;;19.60;8.40;;;;;;;2.25;64.75;100866.33;106745;1265;61165;-90
2023/11/22 07:55:09;;;;;;;18.00;7.90;;;;;;;2.22;64.50;100867.46;106779;1258;64991;-95
2023/11/22 07:58:34;;;;;;;15.50;7.50;;;;;;;2.20;64.23;100869.42;102525;1290;600137;-58
2023/11/22 08:01:04;;;;;;;15.00;6.10;;;;;;;2.23;63.98;100870.70;105541;1269;59483;-60
2023/11/22 08:03:32;;;;;;;12.60;5.60;;;;;;;2.26;63.96;100874.95;104498;1269;59257;-58
2023/11/22 08:06:02;;;;;;;15.40;6.10;;;;;;;2.20;63.91;100878.24;105412;1269;62064;-58
2023/11/22 08:08:30;;;;;;;13.80;6.70;;;;;;;2.14;63.87;100882.48;104602;1270;60120;-57
2023/11/22 08:10:58;;;;;;;11.00;5.90;;;;;;;2.04;63.90;100886.11;102679;1261;3511291;-58
2023/11/22 08:13:26;;;;;;;13.90;5.50;;;;;;;1.95;63.91;100888.52;105823;1266;59295;-59
2023/11/22 08:15:54;;;;;;;11.40;5.00;;;;;;;1.88;63.80;100890.86;106074;1264;59162;-60
2023/11/22 08:18:22;;;;;;;14.90;6.50;;;;;;;1.86;63.92;100890.58;105777;1264;62227;-59
2023/11/22 08:20:50;;;;;;;15.10;6.10;;;;;;;1.93;63.86;100887.90;105401;1266;60263;-59
2023/11/22 08:23:18;;;;;;;10.60;5.10;;;;;;;2.00;63.87;100891.45;105617;1266;63774;-59
2023/11/22 08:25:45;;;;;;;14.30;5.70;;;;;;;2.00;63.51;100896.13;104782;1266;59681;-58
2023/11/22 08:28:13;;;;;;;14.90;6.40;;;;;;;1.91;63.33;100903.71;104850;1262;59739;-58
2023/11/22 08:30:41;;;;;;;11.20;5.30;;;;;;;1.82;63.43;100907.48;104738;1262;62919;-60
2023/11/22 08:33:09;;;;;;;10.70;4.50;;;;;;;1.74;63.69;100907.42;106212;1266;60714;-58
2023/11/22 08:35:36;;;;;;;13.10;5.50;;;;;;;1.64;63.65;100911.07;104573;1267;64200;-58
2023/11/22 08:38:08;;;;;;;12.80;5.50;;;;;;;1.60;63.64;100915.52;105721;1275;59965;-57
2023/11/22 08:40:37;;;;;;;9.80;3.90;;;;;;;1.61;63.72;100917.70;104691;1266;59723;-57
2023/11/22 08:43:04;;;;;;;11.00;4.90;;;;;;;1.61;63.86;100916.52;108456;1262;64058;-56
2023/11/22 08:45:33;;;;;;;10.30;4.60;;;;;;;1.58;63.64;100914.74;105569;1264;61340;-57
2023/11/22 08:48:00;;;;;;;8.80;4.20;;;;;;;1.49;63.28;100911.90;107441;1264;63910;-56
2023/11/22 08:50:30;;;;;;;8.70;3.80;;;;;;;1.41;63.42;100917.90;104755;1267;59662;-58
2023/11/22 08:52:58;;;;;;;8.60;3.90;;;;;;;1.36;63.68;100922.73;107714;1267;59371;-57
2023/11/22 08:55:26;;;;;;;8.80;4.00;;;;;;;1.26;63.34;100923.54;104860;1267;64672;-56
2023/11/22 08:57:54;;;;;;;8.30;4.20;;;;;;;1.25;63.05;100921.15;105276;1264;61405;-58
2023/11/22 09:00:22;;;;;;;9.70;4.10;;;;;;;1.24;63.05;100919.80;105586;1254;71335;-58
2023/11/22 09:02:50;;;;;;;12.30;5.70;;;;;;;1.21;63.34;100918.20;105922;1256;59688;-59
2023/11/22 09:05:19;;;;;;;9.70;3.80;;;;;;;1.16;63.61;100914.22;105382;1259;60761;-59
2023/11/22 09:07:47;;;;;;;10.50;4.30;;;;;;;1.11;63.58;100913.52;106173;1254;62798;-58
2023/11/22 09:10:15;;;;;;;10.80;3.70;;;;;;;1.05;63.70;100912.30;106069;1254;68598;-58
2023/11/22 09:12:43;;;;;;;9.80;3.60;;;;;;;1.09;63.62;100907.52;105463;1254;72615;-59
2023/11/22 09:15:13;;;;;;;10.60;4.40;;;;;;;1.10;63.53;100904.38;106177;1256;59620;-60
2023/11/22 09:17:46;;;;;;;9.40;3.80;;;;;;;1.11;63.85;100901.06;105369;1257;60291;-59
2023/11/22 09:20:18;;;;;;;10.90;4.20;;;;;;;1.11;63.75;100906.07;106668;1252;64232;-58
2023/11/22 09:22:50;;;;;;;13.00;3.20;;;;;;;1.07;63.37;100912.10;105523;1254;69933;-59
2023/11/22 09:25:20;;;;;;;9.30;3.30;;;;;;;1.00;63.48;100916.98;105861;1257;64033;-58
2023/11/22 09:27:51;;;;;;;11.40;4.50;;;;;;;0.97;63.44;100915.86;106110;1257;62086;-59
2023/11/22 09:30:32;;;;;;;11.60;4.10;;;;;;;0.99;63.13;100910.61;105861;1254;59711;-59
2023/11/22 09:33:16;;;;;;;10.60;5.90;;;;;;;1.00;63.14;100911.98;105723;1257;62868;-58
2023/11/22 09:35:45;;;;;;;9.70;3.90;;;;;;;0.98;63.66;100918.23;106272;1254;72390;-59
2023/11/22 09:38:14;;;;;;;10.60;5.40;;;;;;;1.00;63.98;100923.86;106446;1254;71711;-57
2023/11/22 09:40:43;;;;;;;9.10;3.90;;;;;;;1.00;63.67;100923.71;105626;1257;59570;-57
2023/11/22 09:43:12;;;;;;;9.10;3.70;;;;;;;0.97;63.74;100921.73;107109;1253;59747;-58
2023/11/22 09:45:39;;;;;;;9.30;4.00;;;;;;;1.02;63.70;100922.27;106136;1257;72528;-59
2023/11/22 09:48:12;;;;;;;10.20;3.40;;;;;;;1.10;63.53;100919.43;105452;1258;69045;-59
2023/11/22 09:50:43;;;;;;;9.50;4.00;;;;;;;1.16;63.41;100921.11;105581;1257;62497;-57
2023/11/22 09:53:12;;;;;;;15.50;4.80;;;;;;;1.16;62.81;100921.13;108457;1257;59669;-57
2023/11/22 09:55:42;;;;;;;9.60;4.40;;;;;;;1.10;62.83;100926.00;105369;1254;59526;-57
2023/11/22 09:58:13;;;;;;;12.00;5.00;;;;;;;1.06;63.20;100928.52;105884;1260;64100;-57
2023/11/22 10:00:41;;;;;;;13.30;5.80;;;;;;;1.02;63.06;100924.69;105775;1260;69175;-59
2023/11/22 10:03:12;;;;;;;9.30;3.80;;;;;;;0.94;62.87;100933.38;105403;1257;63753;-58
2023/11/22 10:05:42;;;;;;;10.80;4.80;;;;;;;0.92;62.97;100941.73;105975;1258;59827;-57
2023/11/22 10:08:10;;;;;;;18.00;6.30;;;;;;;0.92;62.83;100943.98;105474;1254;62410;-57
2023/11/22 10:10:40;;;;;;;10.60;4.70;;;;;;;0.93;62.83;100949.66;106964;1254;74725;-57
2023/11/22 10:13:09;;;;;;;13.80;4.80;;;;;;;0.89;62.77;100943.39;109215;1254;71639;-56
2023/11/22 10:15:37;;;;;;;16.80;5.50;;;;;;;0.82;62.49;100946.02;109294;1254;74783;-58
2023/11/22 10:18:07;;;;;;;8.50;3.50;;;;;;;0.71;62.63;100950.66;109202;1255;57991;-57
2023/11/22 10:20:40;;;;;;;8.50;3.80;;;;;;;0.66;62.97;100948.25;108924;1254;58769;-57
2023/11/22 10:23:08;;;;;;;12.70;5.60;;;;;;;0.66;62.67;100947.20;109202;1254;64501;-58
2023/11/22 10:25:51;;;;;;;16.40;4.60;;;;;;;0.68;62.59;100951.45;109278;1254;72623;-58
2023/11/22 10:28:19;;;;;;;11.20;4.50;;;;;;;0.65;62.73;100954.31;109273;1254;65936;-59
2023/11/22 10:30:51;;;;;;;10.80;4.20;;;;;;;0.60;62.71;100957.20;109332;1253;57560;-58
2023/11/22 10:33:22;;;;;;;9.80;4.60;;;;;;;0.55;62.96;100957.55;109314;1252;61191;-57
2023/11/22 10:35:52;;;;;;;10.60;4.40;;;;;;;0.45;62.92;100954.20;108702;1255;75739;-60
2023/11/22 10:51:36;;;;;;;14.10;9.90;;;;;;;0.56;62.28;100965.23;102965;1285;604418;-57
2023/11/22 10:54:04;;;;;;;8.50;4.30;;;;;;;0.88;61.17;100967.23;103164;1273;3350170;-54
2023/11/22 10:56:37;;;;;;;12.40;4.80;;;;;;;0.86;61.25;100973.19;105569;1271;59202;-54
2023/11/22 10:59:11;;;;;;;11.30;4.70;;;;;;;0.79;61.75;100970.64;104991;1267;63330;-47
2023/11/22 11:01:45;;;;;;;11.30;5.40;;;;;;;0.72;61.79;100968.44;108476;1265;60422;-53
2023/11/22 11:04:23;;;;;;;12.90;4.60;;;;;;;0.62;61.83;100972.54;108416;1266;64696;-54
2023/11/22 11:06:51;;;;;;;14.10;5.60;;;;;;;0.56;61.93;100974.94;107972;1266;59295;-52
2023/11/22 11:09:21;;;;;;;20.20;6.60;;;;;;;0.60;61.90;100974.14;107692;1265;59197;-54
2023/11/22 11:11:50;;;;;;;9.80;4.00;;;;;;;0.64;61.80;100972.64;105235;1265;62138;-52
2023/11/22 11:14:18;;;;;;;11.10;4.90;;;;;;;0.61;61.79;100977.03;105914;1267;72669;-54
2023/11/22 11:16:49;;;;;;;8.40;4.30;;;;;;;0.55;62.01;100969.27;104567;1270;74139;-50
2023/11/22 11:19:23;;;;;;;9.80;4.10;;;;;;;0.54;62.20;100974.15;104520;1267;59742;-54
2023/11/22 11:21:51;;;;;;;9.60;4.00;;;;;;;0.53;62.66;100978.63;104510;1268;59646;-53
2023/11/22 11:24:19;;;;;;;8.80;3.80;;;;;;;0.54;62.36;100983.77;104279;1266;72139;-52
2023/11/22 11:26:52;;;;;;;11.50;4.00;;;;;;;0.59;62.27;100980.91;104288;1266;72611;-54
2023/11/22 11:29:36;;;;;;;10.20;5.30;;;;;;;0.57;61.98;100976.81;106268;1265;62561;-52
2023/11/22 11:32:04;;;;;;;15.10;5.60;;;;;;;0.51;62.17;100976.98;105042;1267;59725;-52
2023/11/22 11:34:32;;;;;;;10.20;5.40;;;;;;;0.46;62.00;100979.38;106183;1265;59562;-53
2023/11/22 11:37:00;;;;;;;10.50;3.80;;;;;;;0.39;62.16;100986.48;104816;1268;75197;-53
2023/11/22 11:39:31;;;;;;;9.40;5.00;;;;;;;0.34;62.56;100984.88;104411;1271;72370;-53
2023/11/22 11:42:13;;;;;;;8.30;3.40;;;;;;;0.33;62.62;100985.61;104515;1270;72493;-55